createdAt,value
2023-02-27T00:02:20.567Z,1.19
2023-02-27T00:04:48.943Z,1.16
2023-02-27T00:07:17.986Z,1.20
2023-02-27T00:09:46.322Z,1.20
2023-02-27T00:12:14.814Z,1.18
2023-02-27T00:14:43.102Z,1.18
2023-02-27T00:17:11.558Z,1.20
2023-02-27T00:19:39.889Z,1.16
2023-02-27T00:22:08.304Z,1.17
2023-02-27T00:24:36.570Z,1.15
2023-02-27T00:27:04.984Z,1.18
2023-02-27T00:29:33.305Z,1.20
2023-02-27T00:32:01.705Z,1.22
2023-02-27T00:34:30.154Z,1.21
2023-02-27T00:36:58.487Z,1.21
2023-02-27T00:39:26.804Z,1.21
2023-02-27T00:41:55.232Z,1.24
2023-02-27T00:44:23.950Z,1.20
2023-02-27T00:46:52.389Z,1.20
2023-02-27T00:49:21.038Z,1.19
2023-02-27T00:51:49.489Z,1.24
2023-02-27T00:54:18.086Z,1.28
2023-02-27T00:56:46.453Z,1.27
2023-02-27T00:59:15.156Z,1.26
2023-02-27T01:01:44.860Z,1.25
2023-02-27T01:04:13.655Z,1.24
2023-02-27T01:06:42.008Z,1.25
2023-02-27T01:09:10.399Z,1.25
2023-02-27T01:11:38.949Z,1.23
2023-02-27T01:14:07.274Z,1.24
2023-02-27T01:16:36.541Z,1.29
2023-02-27T01:19:05.137Z,1.27
2023-02-27T01:21:33.588Z,1.23
2023-02-27T01:24:02.334Z,1.25
2023-02-27T01:26:30.724Z,1.25
2023-02-27T01:28:59.793Z,1.25
2023-02-27T01:31:28.558Z,1.30
2023-02-27T01:33:57.201Z,1.22
2023-02-27T01:36:25.619Z,1.23
2023-02-27T01:38:53.933Z,1.25
2023-02-27T01:41:22.481Z,1.24
2023-02-27T01:44:09.901Z,1.23
2023-02-27T01:46:39.667Z,1.25
2023-02-27T01:49:32.544Z,1.22
2023-02-27T01:52:06.561Z,1.17
2023-02-27T01:54:40.536Z,1.18
2023-02-27T01:57:09.908Z,1.19
2023-02-27T01:59:41.717Z,1.23
2023-02-27T02:02:22.107Z,1.24
2023-02-27T02:04:51.374Z,1.19
2023-02-27T02:07:22.184Z,1.19
2023-02-27T02:09:55.074Z,1.22
2023-02-27T02:12:34.137Z,1.24
2023-02-27T02:15:04.169Z,1.22
2023-02-27T02:18:19.886Z,1.17
2023-02-27T02:21:29.485Z,1.18
2023-02-27T02:24:34.278Z,1.16
2023-02-27T02:27:26.445Z,1.18
2023-02-27T02:30:25.003Z,1.13
2023-02-27T02:33:11.741Z,1.10
2023-02-27T02:36:17.892Z,1.13
2023-02-27T02:39:17.181Z,1.17
2023-02-27T02:41:48.383Z,1.17
2023-02-27T02:44:41.862Z,1.19
2023-02-27T02:47:22.206Z,1.18
2023-02-27T02:50:05.649Z,1.19
2023-02-27T02:53:09.144Z,1.15
2023-02-27T02:55:52.885Z,1.11
2023-02-27T02:58:37.473Z,1.06
2023-02-27T03:01:15.686Z,1.10
2023-02-27T03:04:10.551Z,1.08
2023-02-27T03:06:56.127Z,1.07
2023-02-27T03:09:42.861Z,1.07
2023-02-27T03:12:16.781Z,1.09
2023-02-27T03:15:03.892Z,1.12
2023-02-27T03:17:43.427Z,1.10
2023-02-27T03:20:18.392Z,1.06
2023-02-27T03:22:52.708Z,1.07
2023-02-27T03:25:25.341Z,1.01
2023-02-27T03:28:01.528Z,1.03
2023-02-27T03:30:53.544Z,1.01
2023-02-27T03:33:29.509Z,0.98
2023-02-27T03:36:19.722Z,0.98
2023-02-27T03:39:18.109Z,0.94
2023-02-27T03:42:34.172Z,0.94
2023-02-27T03:45:26.028Z,0.89
2023-02-27T03:47:54.740Z,0.90
2023-02-27T03:50:23.291Z,0.91
2023-02-27T03:52:51.938Z,0.91
2023-02-27T03:55:35.691Z,0.92
2023-02-27T03:58:05.205Z,0.92
2023-02-27T04:00:34.694Z,0.92
2023-02-27T04:03:05.231Z,0.89
2023-02-27T04:05:34.149Z,0.89
2023-02-27T04:08:46.954Z,0.87
2023-02-27T04:11:30.426Z,0.81
2023-02-27T04:14:29.869Z,0.87
2023-02-27T04:17:27.520Z,0.89
2023-02-27T04:20:26.772Z,0.87
2023-02-27T04:23:18.833Z,0.87
2023-02-27T04:25:52.869Z,0.85
2023-02-27T04:28:48.436Z,0.89
2023-02-27T04:31:31.450Z,0.85
2023-02-27T04:34:36.799Z,0.86
2023-02-27T04:37:21.214Z,0.87
2023-02-27T04:40:02.819Z,0.85
2023-02-27T04:42:35.747Z,0.81
2023-02-27T04:45:09.525Z,0.80
2023-02-27T04:47:48.123Z,0.82
2023-02-27T04:50:27.815Z,0.82
2023-02-27T04:53:12.043Z,0.82
2023-02-27T04:55:50.496Z,0.86
2023-02-27T04:58:25.813Z,0.88
2023-02-27T05:01:03.945Z,0.86
2023-02-27T05:03:41.508Z,0.84
2023-02-27T05:06:11.675Z,0.86
2023-02-27T05:08:50.916Z,0.84
2023-02-27T05:11:41.150Z,0.79
2023-02-27T05:14:31.869Z,0.85
2023-02-27T05:17:09.361Z,0.83
2023-02-27T05:19:42.826Z,0.89
2023-02-27T05:22:40.042Z,0.91
2023-02-27T05:25:30.792Z,0.88
2023-02-27T05:28:21.658Z,0.88
2023-02-27T05:31:02.129Z,0.91
2023-02-27T05:33:39.314Z,0.94
2023-02-27T05:36:38.684Z,0.96
2023-02-27T05:39:11.053Z,0.98
2023-02-27T05:41:50.621Z,1.05
2023-02-27T05:44:28.280Z,1.07
2023-02-27T05:47:02.093Z,1.04
2023-02-27T05:49:49.444Z,1.06
2023-02-27T05:52:23.589Z,1.02
2023-02-27T05:55:09.287Z,1.07
2023-02-27T05:57:47.034Z,1.06
2023-02-27T06:00:26.264Z,1.09
2023-02-27T06:02:54.680Z,1.09
2023-02-27T06:05:25.605Z,1.14
2023-02-27T06:07:53.967Z,1.15
2023-02-27T06:10:22.755Z,1.18
2023-02-27T06:12:51.134Z,1.23
2023-02-27T06:15:19.915Z,1.22
2023-02-27T06:17:48.299Z,1.23
2023-02-27T06:20:17.009Z,1.26
2023-02-27T06:22:45.551Z,1.23
2023-02-27T06:25:14.061Z,1.16
2023-02-27T06:27:42.449Z,1.21
2023-02-27T06:30:11.835Z,1.24
2023-02-27T06:32:40.815Z,1.25
2023-02-27T06:35:09.970Z,1.22
2023-02-27T06:37:38.617Z,1.23
2023-02-27T06:40:14.713Z,1.25
2023-02-27T06:42:45.318Z,1.31
2023-02-27T06:45:15.938Z,1.35
2023-02-27T06:47:45.005Z,1.33
2023-02-27T06:50:14.284Z,1.38
2023-02-27T06:52:42.710Z,1.40
2023-02-27T06:55:12.028Z,1.40
2023-02-27T06:57:40.458Z,1.43
2023-02-27T07:00:11.986Z,1.45
2023-02-27T07:02:40.978Z,1.46
2023-02-27T07:05:12.152Z,1.48
2023-02-27T07:07:41.154Z,1.48
2023-02-27T07:10:13.582Z,1.48
2023-02-27T07:12:42.385Z,1.48
2023-02-27T07:15:11.563Z,1.47
2023-02-27T07:17:40.043Z,1.52
2023-02-27T07:20:10.797Z,1.59
2023-02-27T07:22:40.833Z,1.56
2023-02-27T07:25:10.221Z,1.56
2023-02-27T07:27:38.888Z,1.56
2023-02-27T07:30:10.773Z,1.54
2023-02-27T07:32:39.139Z,1.53
2023-02-27T07:35:08.671Z,1.56
2023-02-27T07:37:37.089Z,1.50
2023-02-27T07:40:07.739Z,1.53
2023-02-27T07:42:36.100Z,1.50
2023-02-27T07:45:06.142Z,1.55
2023-02-27T07:47:34.536Z,1.56
2023-02-27T07:50:04.601Z,1.61
2023-02-27T07:52:33.234Z,1.62
2023-02-27T07:55:01.625Z,1.63
2023-02-27T07:57:29.992Z,1.59
2023-02-27T07:59:59.152Z,1.63
2023-02-27T08:02:27.564Z,1.67
2023-02-27T08:04:56.016Z,1.70
2023-02-27T08:07:25.388Z,1.70
2023-02-27T08:09:54.027Z,1.75
2023-02-27T08:12:22.575Z,1.78
2023-02-27T08:14:51.006Z,1.77
2023-02-27T08:17:19.472Z,1.81
2023-02-27T08:19:47.805Z,1.86
2023-02-27T08:22:16.277Z,1.86
2023-02-27T08:24:44.927Z,1.87
2023-02-27T08:27:13.399Z,1.88
2023-02-27T08:29:43.551Z,1.89
2023-02-27T08:32:12.123Z,1.92
2023-02-27T08:34:40.818Z,1.95
2023-02-27T08:37:09.224Z,1.97
2023-02-27T08:39:37.692Z,1.97
2023-02-27T08:42:07.318Z,1.96
2023-02-27T08:44:35.930Z,2.03
2023-02-27T08:47:04.422Z,2.06
2023-02-27T08:49:32.975Z,2.11
2023-02-27T08:52:01.560Z,2.09
2023-02-27T08:54:30.487Z,2.14
2023-02-27T08:56:59.012Z,2.17
2023-02-27T08:59:27.897Z,2.16
2023-02-27T09:01:56.422Z,2.17
2023-02-27T09:04:25.070Z,2.13
2023-02-27T09:06:57.502Z,2.16
2023-02-27T09:09:25.951Z,2.16
2023-02-27T09:11:54.464Z,2.17
2023-02-27T09:14:23.363Z,2.20
2023-02-27T09:16:51.913Z,2.22
2023-02-27T09:19:20.388Z,2.23
2023-02-27T09:21:48.820Z,2.20
2023-02-27T09:24:20.452Z,2.22
2023-02-27T09:26:49.822Z,2.16
2023-02-27T09:29:18.544Z,2.12
2023-02-27T09:31:47.265Z,2.13
2023-02-27T09:34:15.876Z,2.13
2023-02-27T09:36:44.360Z,2.08
2023-02-27T09:39:12.862Z,2.01
2023-02-27T09:41:55.949Z,2.07
2023-02-27T09:44:45.657Z,1.97
2023-02-27T09:47:30.919Z,1.97
2023-02-27T09:50:17.962Z,1.99
2023-02-27T09:52:46.434Z,1.95
2023-02-27T09:55:21.867Z,1.92
2023-02-27T09:57:57.983Z,1.99
2023-02-27T10:00:44.263Z,2.01
2023-02-27T10:03:56.724Z,2.03
2023-02-27T10:06:44.354Z,1.94
2023-02-27T10:09:30.926Z,1.97
2023-02-27T10:12:24.176Z,2.05
2023-02-27T10:15:15.922Z,2.07
2023-02-27T10:18:26.076Z,2.08
2023-02-27T10:21:16.006Z,2.07
2023-02-27T10:24:07.852Z,2.16
2023-02-27T10:26:41.664Z,2.18
2023-02-27T10:29:34.495Z,2.10
2023-02-27T10:32:09.958Z,1.99
2023-02-27T10:34:42.781Z,1.99
2023-02-27T10:37:17.699Z,2.08
2023-02-27T10:39:52.573Z,2.12
2023-02-27T10:42:23.479Z,2.16
2023-02-27T10:44:53.910Z,2.16
2023-02-27T10:47:25.393Z,2.24
2023-02-27T10:49:55.430Z,2.22
2023-02-27T10:52:23.943Z,2.27
2023-02-27T10:54:53.167Z,2.24
2023-02-27T10:57:36.100Z,2.17
2023-02-27T11:00:22.618Z,2.24
2023-02-27T11:02:54.806Z,2.19
2023-02-27T11:05:33.280Z,2.18
2023-02-27T11:08:22.868Z,2.18
2023-02-27T11:11:09.550Z,2.16
2023-02-27T11:13:45.377Z,2.14
2023-02-27T11:16:16.780Z,2.08
2023-02-27T11:18:48.601Z,2.09
2023-02-27T11:21:30.597Z,2.11
2023-02-27T11:24:20.772Z,2.05
2023-02-27T11:27:03.989Z,2.04
2023-02-27T11:29:35.169Z,2.07
2023-02-27T11:32:13.132Z,2.14
2023-02-27T11:34:50.317Z,2.10
2023-02-27T11:37:32.739Z,2.13
2023-02-27T11:40:19.621Z,2.12
2023-02-27T11:43:05.088Z,2.09
2023-02-27T11:46:10.744Z,2.16
2023-02-27T11:48:49.619Z,2.18
2023-02-27T11:51:41.869Z,2.17
2023-02-27T11:54:19.007Z,2.15
2023-02-27T11:57:27.953Z,2.08
2023-02-27T12:00:16.546Z,2.19
2023-02-27T12:02:58.241Z,2.18
2023-02-27T12:05:32.640Z,2.16
2023-02-27T12:08:18.417Z,2.21
2023-02-27T12:11:01.742Z,2.33
2023-02-27T12:13:41.614Z,2.21
2023-02-27T12:16:51.558Z,2.23
2023-02-27T12:19:47.390Z,2.27
2023-02-27T12:22:32.169Z,2.26
2023-02-27T12:25:12.207Z,2.17
2023-02-27T12:27:53.724Z,2.21
2023-02-27T12:30:27.691Z,2.14
2023-02-27T12:33:22.305Z,2.29
2023-02-27T12:36:03.045Z,2.21
2023-02-27T12:38:32.544Z,2.19
2023-02-27T12:41:14.701Z,2.29
2023-02-27T12:44:07.870Z,2.27
2023-02-27T12:47:45.417Z,2.36
2023-02-27T12:50:23.025Z,2.32
2023-02-27T12:53:19.937Z,2.31
2023-02-27T12:56:06.490Z,2.35
2023-02-27T12:59:03.463Z,2.38
2023-02-27T13:01:59.881Z,2.30
2023-02-27T13:04:43.560Z,2.31
2023-02-27T13:07:37.633Z,2.34
2023-02-27T13:10:27.596Z,2.30
2023-02-27T13:13:09.381Z,2.33
2023-02-27T13:15:49.229Z,2.35
2023-02-27T13:18:30.908Z,2.35
2023-02-27T13:21:31.824Z,2.34
2023-02-27T13:24:16.653Z,2.30
2023-02-27T13:26:58.610Z,2.27
2023-02-27T13:29:39.979Z,2.24
2023-02-27T13:32:43.512Z,2.33
2023-02-27T13:35:49.345Z,2.28
2023-02-27T13:38:34.862Z,2.36
2023-02-27T13:41:21.776Z,2.34
2023-02-27T13:43:53.121Z,2.34
2023-02-27T13:46:47.923Z,2.40
2023-02-27T13:49:29.621Z,2.49
2023-02-27T13:52:05.382Z,2.60
2023-02-27T13:54:40.749Z,2.56
2023-02-27T13:57:22.942Z,2.42
2023-02-27T13:59:55.207Z,2.48
2023-02-27T14:02:59.416Z,2.45
2023-02-27T14:05:43.249Z,2.33
2023-02-27T14:08:37.119Z,2.26
2023-02-27T14:11:18.656Z,2.31
2023-02-27T14:13:54.897Z,2.21
2023-02-27T14:16:41.551Z,2.12
2023-02-27T14:19:15.584Z,2.19
2023-02-27T14:22:12.810Z,2.10
2023-02-27T14:25:02.460Z,2.03
2023-02-27T14:27:51.957Z,2.06
2023-02-27T14:30:32.333Z,1.93
2023-02-27T14:33:12.001Z,1.90
2023-02-27T14:35:45.594Z,1.85
2023-02-27T14:38:20.157Z,1.83
2023-02-27T14:41:31.338Z,1.81
2023-02-27T14:44:00.523Z,1.74
2023-02-27T14:46:41.454Z,1.83
2023-02-27T14:49:30.992Z,1.93
2023-02-27T14:52:29.615Z,2.02
2023-02-27T14:55:30.029Z,2.00
2023-02-27T14:58:00.343Z,2.05
2023-02-27T15:00:35.069Z,2.03
2023-02-27T15:03:24.327Z,1.98
2023-02-27T15:05:57.918Z,1.97
2023-02-27T15:08:32.220Z,2.06
2023-02-27T15:11:02.556Z,2.15
2023-02-27T15:13:36.892Z,2.16
2023-02-27T15:16:23.753Z,2.07
2023-02-27T15:19:13.051Z,1.98
2023-02-27T15:21:50.942Z,1.97
2023-02-27T15:24:40.587Z,1.86
2023-02-27T15:27:21.144Z,1.87
2023-02-27T15:29:59.131Z,1.86
2023-02-27T15:32:41.358Z,1.77
2023-02-27T15:35:16.629Z,1.60
2023-02-27T15:37:52.153Z,1.62
2023-02-27T15:40:26.439Z,1.65
2023-02-27T15:42:56.316Z,1.64
2023-02-27T15:45:36.393Z,1.65
2023-02-27T15:48:05.355Z,1.75
2023-02-27T15:50:38.402Z,1.72
2023-02-27T15:53:25.990Z,1.71
2023-02-27T15:56:06.221Z,1.66
2023-02-27T15:58:39.062Z,1.66
2023-02-27T16:01:20.625Z,1.63
2023-02-27T16:03:53.273Z,1.64
2023-02-27T16:06:33.200Z,1.63
2023-02-27T16:09:19.573Z,1.57
2023-02-27T16:11:48.089Z,1.65
2023-02-27T16:14:39.358Z,1.60
2023-02-27T16:17:28.180Z,1.60
2023-02-27T16:20:01.796Z,1.53
2023-02-27T16:22:30.708Z,1.51
2023-02-27T16:25:18.944Z,1.52
2023-02-27T16:27:51.116Z,1.53
2023-02-27T16:30:19.551Z,1.50
2023-02-27T16:32:47.923Z,1.56
2023-02-27T16:35:20.369Z,1.49
2023-02-27T16:37:50.619Z,1.43
2023-02-27T16:40:23.140Z,1.48
2023-02-27T16:42:53.273Z,1.44
2023-02-27T16:45:27.907Z,1.35
2023-02-27T16:47:59.658Z,1.26
2023-02-27T16:50:38.640Z,1.25
2023-02-27T16:53:08.186Z,1.22
2023-02-27T16:55:41.082Z,1.18
2023-02-27T16:58:17.009Z,1.09
2023-02-27T17:00:45.548Z,1.02
2023-02-27T17:03:14.633Z,1.01
2023-02-27T17:05:43.086Z,1.03
2023-02-27T17:08:11.822Z,1.02
2023-02-27T17:10:40.233Z,1.01
2023-02-27T17:13:08.682Z,1.02
2023-02-27T17:15:36.986Z,1.02
2023-02-27T17:18:07.051Z,1.11
2023-02-27T17:20:36.996Z,1.04
2023-02-27T17:23:05.472Z,1.10
2023-02-27T17:25:34.052Z,1.05
2023-02-27T17:28:02.457Z,1.04
2023-02-27T17:30:30.831Z,1.09
2023-02-27T17:33:00.708Z,1.08
2023-02-27T17:35:32.625Z,0.96
2023-02-27T17:38:01.087Z,0.92
2023-02-27T17:40:29.566Z,0.90
2023-02-27T17:42:57.998Z,0.83
2023-02-27T17:45:27.360Z,0.82
2023-02-27T17:47:55.868Z,0.81
2023-02-27T17:50:24.254Z,0.78
2023-02-27T17:52:52.781Z,0.73
2023-02-27T17:55:21.356Z,0.75
2023-02-27T17:57:49.962Z,0.77
2023-02-27T18:00:18.979Z,0.77
2023-02-27T18:02:48.259Z,0.76
2023-02-27T18:05:17.234Z,0.76
2023-02-27T18:07:45.823Z,0.73
2023-02-27T18:10:14.496Z,0.77
2023-02-27T18:12:43.397Z,0.75
2023-02-27T18:15:11.831Z,0.77
2023-02-27T18:17:40.362Z,0.78
2023-02-27T18:20:10.219Z,0.70
2023-02-27T18:22:38.595Z,0.73
2023-02-27T18:25:07.533Z,0.72
2023-02-27T18:27:36.049Z,0.72
2023-02-27T18:30:05.320Z,0.68
2023-02-27T18:32:33.686Z,0.68
2023-02-27T18:35:02.213Z,0.69
2023-02-27T18:37:30.682Z,0.64
2023-02-27T18:39:59.042Z,0.61
2023-02-27T18:42:27.474Z,0.60
2023-02-27T18:44:55.772Z,0.62
2023-02-27T18:47:24.998Z,0.61
2023-02-27T18:49:53.383Z,0.56
2023-02-27T18:52:21.952Z,0.54
2023-02-27T18:54:50.529Z,0.59
2023-02-27T18:57:19.091Z,0.65
2023-02-27T18:59:47.737Z,0.66
2023-02-27T19:02:21.544Z,0.68
2023-02-27T19:04:50.180Z,0.72
2023-02-27T19:07:19.761Z,0.72
2023-02-27T19:09:48.315Z,0.73
2023-02-27T19:12:17.555Z,0.77
2023-02-27T19:14:45.925Z,0.71
2023-02-27T19:17:14.336Z,0.69
2023-02-27T19:19:42.828Z,0.70
2023-02-27T19:22:11.390Z,0.73
2023-02-27T19:24:39.832Z,0.75
2023-02-27T19:27:08.382Z,0.73
2023-02-27T19:29:36.703Z,0.69
2023-02-27T19:32:07.716Z,0.71
2023-02-27T19:34:36.285Z,0.67
2023-02-27T19:37:04.769Z,0.66
2023-02-27T19:39:33.446Z,0.54
2023-02-27T19:42:01.831Z,0.63
2023-02-27T19:44:30.198Z,0.63
2023-02-27T19:46:58.671Z,0.65
2023-02-27T19:49:27.491Z,0.50
2023-02-27T19:51:55.967Z,0.49
2023-02-27T19:54:24.940Z,0.60
2023-02-27T19:56:54.424Z,0.53
2023-02-27T19:59:24.763Z,0.57
2023-02-27T20:01:53.474Z,0.62
2023-02-27T20:04:21.991Z,0.61
2023-02-27T20:06:53.687Z,0.57
2023-02-27T20:09:23.375Z,0.58
2023-02-27T20:11:56.820Z,0.58
2023-02-27T20:14:25.333Z,0.57
2023-02-27T20:16:54.438Z,0.47
2023-02-27T20:19:24.281Z,0.45
2023-02-27T20:21:54.283Z,0.43
2023-02-27T20:24:24.572Z,0.47
2023-02-27T20:26:54.262Z,0.49
2023-02-27T20:29:25.200Z,0.46
2023-02-27T20:31:55.787Z,0.46
2023-02-27T20:34:26.518Z,0.42
2023-02-27T20:36:56.068Z,0.39
2023-02-27T20:39:25.147Z,0.37
2023-02-27T20:41:53.550Z,0.36
2023-02-27T20:44:22.064Z,0.28
2023-02-27T20:46:50.503Z,0.28
2023-02-27T20:49:18.969Z,0.30
2023-02-27T20:51:47.396Z,0.30
2023-02-27T20:54:20.815Z,0.29
2023-02-27T20:56:54.779Z,0.30
2023-02-27T20:59:25.392Z,0.26
2023-02-27T21:01:54.937Z,0.30
2023-02-27T21:04:42.282Z,0.30
2023-02-27T21:07:13.914Z,0.28
2023-02-27T21:09:42.375Z,0.24
2023-02-27T21:12:11.373Z,0.21
2023-02-27T21:14:40.111Z,0.21
2023-02-27T21:17:08.447Z,0.20
2023-02-27T21:19:39.939Z,0.20
2023-02-27T21:22:11.231Z,0.17
2023-02-27T21:24:39.926Z,0.18
2023-02-27T21:27:08.775Z,0.21
2023-02-27T21:29:37.223Z,0.19
2023-02-27T21:32:05.780Z,0.18
2023-02-27T21:34:34.106Z,0.19
2023-02-27T21:37:03.695Z,0.17
2023-02-27T21:39:32.269Z,0.17
2023-02-27T21:42:00.702Z,0.19
2023-02-27T21:44:29.826Z,0.16
2023-02-27T21:46:59.528Z,0.20
2023-02-27T21:49:31.303Z,0.22
2023-02-27T21:51:59.646Z,0.20
2023-02-27T21:54:28.013Z,0.18
2023-02-27T21:56:58.202Z,0.21
2023-02-27T21:59:26.563Z,0.18
2023-02-27T22:01:56.407Z,0.18
2023-02-27T22:04:25.225Z,0.15
2023-02-27T22:06:53.631Z,0.15
2023-02-27T22:09:22.052Z,0.19
2023-02-27T22:11:50.463Z,0.20
2023-02-27T22:14:18.781Z,0.18
2023-02-27T22:16:47.221Z,0.17
2023-02-27T22:19:22.171Z,0.19
2023-02-27T22:21:50.530Z,0.19
2023-02-27T22:24:18.873Z,0.21
2023-02-27T22:26:49.748Z,0.19
2023-02-27T22:29:18.130Z,0.19
2023-02-27T22:31:46.981Z,0.23
2023-02-27T22:34:18.722Z,0.24
2023-02-27T22:36:52.810Z,0.23
2023-02-27T22:39:21.561Z,0.22
2023-02-27T22:41:50.214Z,0.25
2023-02-27T22:44:18.701Z,0.27
2023-02-27T22:46:49.692Z,0.28
2023-02-27T22:49:23.616Z,0.32
2023-02-27T22:51:52.879Z,0.38
2023-02-27T22:54:22.760Z,0.42
2023-02-27T22:56:53.179Z,0.41
2023-02-27T22:59:21.722Z,0.50
2023-02-27T23:01:50.848Z,0.48
2023-02-27T23:04:21.486Z,0.53
2023-02-27T23:06:52.580Z,0.55
2023-02-27T23:09:24.359Z,0.63
2023-02-27T23:11:54.860Z,0.65
2023-02-27T23:14:23.358Z,0.74
2023-02-27T23:16:51.907Z,0.77
2023-02-27T23:19:22.742Z,0.83
2023-02-27T23:21:51.340Z,0.90
2023-02-27T23:24:20.054Z,0.95
2023-02-27T23:26:52.328Z,0.88
2023-02-27T23:29:21.321Z,0.86
2023-02-27T23:31:50.182Z,0.81
2023-02-27T23:34:18.902Z,0.80
2023-02-27T23:36:47.505Z,0.80
2023-02-27T23:39:15.977Z,0.80
2023-02-27T23:41:44.606Z,0.77
2023-02-27T23:44:13.342Z,0.78
2023-02-27T23:46:41.861Z,0.78
2023-02-27T23:49:11.422Z,0.79
2023-02-27T23:51:40.359Z,0.78
2023-02-27T23:54:09.098Z,0.74
2023-02-27T23:56:37.728Z,0.71
2023-02-27T23:59:07.281Z,0.76
